createdAt,value
2023-03-29T00:01:00.175Z,2.25
2023-03-29T00:03:27.730Z,3.03
2023-03-29T00:08:31.595Z,3.00
2023-03-29T00:10:59.477Z,3.03
2023-03-29T00:13:27.320Z,2.95
2023-03-29T00:15:55.325Z,3.25
2023-03-29T00:18:22.996Z,3.10
2023-03-29T00:20:57.065Z,2.90
2023-03-29T00:23:25.087Z,3.45
2023-03-29T00:25:55.837Z,3.28
2023-03-29T00:28:23.038Z,3.08
2023-03-29T00:30:52.715Z,3.15
2023-03-29T00:33:22.995Z,3.45
2023-03-29T00:35:53.352Z,2.97
2023-03-29T00:38:20.030Z,2.80
2023-03-29T00:40:47.472Z,2.97
2023-03-29T00:45:42.229Z,2.78
2023-03-29T00:48:16.531Z,3.22
2023-03-29T00:51:04.061Z,3.00
2023-03-29T00:53:38.533Z,3.28
2023-03-29T00:56:19.966Z,3.00
2023-03-29T00:59:04.924Z,2.80
2023-03-29T01:01:42.160Z,3.03
2023-03-29T01:04:18.603Z,2.90
2023-03-29T01:06:57.235Z,2.13
2023-03-29T01:09:27.207Z,2.85
2023-03-29T01:11:57.645Z,2.65
2023-03-29T01:14:35.834Z,2.63
2023-03-29T01:17:02.478Z,3.10
2023-03-29T01:19:34.446Z,2.85
2023-03-29T01:22:15.651Z,3.00
2023-03-29T01:25:14.647Z,2.47
2023-03-29T01:27:53.373Z,2.80
2023-03-29T01:30:29.045Z,2.75
2023-03-29T01:33:02.851Z,3.15
2023-03-29T01:35:40.333Z,3.10
2023-03-29T01:38:16.225Z,2.80
2023-03-29T01:40:42.796Z,2.75
2023-03-29T01:43:12.406Z,3.00
2023-03-29T01:45:47.545Z,3.13
2023-03-29T01:48:24.766Z,2.60
2023-03-29T01:53:49.671Z,3.00
2023-03-29T01:56:26.531Z,2.63
2023-03-29T01:58:58.254Z,3.08
2023-03-29T02:01:30.037Z,2.90
2023-03-29T02:04:02.828Z,3.30
2023-03-29T02:06:32.966Z,3.25
2023-03-29T02:09:00.171Z,3.38
2023-03-29T02:11:29.288Z,3.13
2023-03-29T02:13:57.331Z,3.50
2023-03-29T02:16:23.903Z,2.90
2023-03-29T02:18:53.032Z,2.95
2023-03-29T02:21:37.331Z,3.08
2023-03-29T02:24:07.589Z,2.65
2023-03-29T02:26:34.635Z,3.03
2023-03-29T02:29:01.505Z,3.38
2023-03-29T02:31:43.815Z,2.40
2023-03-29T02:34:26.840Z,3.20
2023-03-29T02:37:03.108Z,3.00
2023-03-29T02:39:32.408Z,3.40
2023-03-29T02:41:59.623Z,3.10
2023-03-29T02:44:29.829Z,3.03
2023-03-29T02:47:22.093Z,3.00
2023-03-29T02:49:48.887Z,2.42
2023-03-29T02:52:19.465Z,2.25
2023-03-29T02:54:48.571Z,3.22
2023-03-29T02:57:15.186Z,3.22
2023-03-29T02:59:44.213Z,3.10
2023-03-29T03:02:11.854Z,2.85
2023-03-29T03:04:38.495Z,2.95
2023-03-29T03:07:05.439Z,3.17
2023-03-29T03:09:32.055Z,2.88
2023-03-29T03:11:58.623Z,3.00
2023-03-29T03:14:25.406Z,3.40
2023-03-29T03:16:52.870Z,3.20
2023-03-29T03:19:19.908Z,2.90
2023-03-29T03:21:47.072Z,2.80
2023-03-29T03:24:13.774Z,3.53
2023-03-29T03:26:40.349Z,7.18
2023-03-29T03:29:06.969Z,3.92
2023-03-29T03:31:33.728Z,3.00
2023-03-29T03:34:00.421Z,5.65
2023-03-29T03:36:29.069Z,3.45
2023-03-29T03:38:55.723Z,5.13
2023-03-29T03:41:22.718Z,3.17
2023-03-29T03:43:49.639Z,3.17
2023-03-29T03:46:17.230Z,2.45
2023-03-29T03:48:47.137Z,2.42
2023-03-29T03:51:14.113Z,2.70
2023-03-29T03:53:41.078Z,2.67
2023-03-29T03:56:10.930Z,4.47
2023-03-29T03:58:38.119Z,4.20
2023-03-29T04:01:06.069Z,3.90
2023-03-29T04:03:32.716Z,4.68
2023-03-29T04:06:01.250Z,4.82
2023-03-29T04:08:28.009Z,3.80
2023-03-29T04:10:56.255Z,3.88
2023-03-29T04:13:23.636Z,3.67
2023-03-29T04:18:21.570Z,6.10
2023-03-29T04:23:16.028Z,4.78
2023-03-29T04:25:42.676Z,3.28
2023-03-29T04:28:10.926Z,4.05
2023-03-29T04:30:37.551Z,3.55
2023-03-29T04:33:04.301Z,3.10
2023-03-29T04:35:30.941Z,4.18
2023-03-29T04:37:57.556Z,4.30
2023-03-29T04:40:24.159Z,4.28
2023-03-29T04:42:51.740Z,3.40
2023-03-29T04:45:18.600Z,3.80
2023-03-29T04:47:46.230Z,4.38
2023-03-29T04:50:13.905Z,15.43
2023-03-29T04:52:41.007Z,9.50
2023-03-29T04:55:08.262Z,10.43
2023-03-29T04:57:34.920Z,6.75
2023-03-29T05:00:01.601Z,4.90
2023-03-29T05:02:30.988Z,4.25
2023-03-29T05:04:57.648Z,3.03
2023-03-29T05:07:24.657Z,3.05
2023-03-29T05:09:51.276Z,2.85
2023-03-29T05:12:17.792Z,2.60
2023-03-29T05:14:44.427Z,2.70
2023-03-29T05:17:11.003Z,2.85
2023-03-29T05:19:38.414Z,2.55
2023-03-29T05:24:31.748Z,2.85
2023-03-29T05:26:58.377Z,2.47
2023-03-29T05:29:24.989Z,2.75
2023-03-29T05:31:52.576Z,2.28
2023-03-29T05:34:20.058Z,2.67
2023-03-29T05:39:13.528Z,2.70
2023-03-29T05:41:40.472Z,2.40
2023-03-29T05:44:07.345Z,2.92
2023-03-29T05:46:34.289Z,3.28
2023-03-29T05:49:01.720Z,2.92
2023-03-29T05:51:28.403Z,2.97
2023-03-29T05:53:54.936Z,2.28
2023-03-29T05:56:22.512Z,2.53
2023-03-29T05:58:49.530Z,2.55
2023-03-29T06:01:17.963Z,2.85
2023-03-29T06:03:46.259Z,2.85
2023-03-29T06:06:16.562Z,3.10
2023-03-29T06:08:44.528Z,2.65
2023-03-29T06:11:13.256Z,3.00
2023-03-29T06:13:42.197Z,2.97
2023-03-29T06:16:10.432Z,2.65
2023-03-29T06:18:39.748Z,2.90
2023-03-29T06:21:07.997Z,2.50
2023-03-29T06:23:34.926Z,3.08
2023-03-29T06:26:01.766Z,2.90
2023-03-29T06:28:28.679Z,2.85
2023-03-29T06:30:56.661Z,2.72
2023-03-29T06:33:25.278Z,3.22
2023-03-29T06:35:51.912Z,2.40
2023-03-29T06:38:24.710Z,2.58
2023-03-29T06:40:52.761Z,2.45
2023-03-29T06:43:19.341Z,2.42
2023-03-29T06:45:45.866Z,2.63
2023-03-29T06:48:12.578Z,3.10
2023-03-29T06:50:39.093Z,2.50
2023-03-29T06:53:05.701Z,1.80
2023-03-29T06:55:32.393Z,2.50
2023-03-29T06:58:02.205Z,2.20
2023-03-29T07:00:29.907Z,2.30
2023-03-29T07:02:58.727Z,2.22
2023-03-29T07:05:28.282Z,2.17
2023-03-29T07:07:56.729Z,2.30
2023-03-29T07:10:32.147Z,2.38
2023-03-29T07:13:02.708Z,2.00
2023-03-29T07:15:29.559Z,1.92
2023-03-29T07:17:57.503Z,2.08
2023-03-29T07:20:25.254Z,2.15
2023-03-29T07:22:51.885Z,2.10
2023-03-29T07:25:19.857Z,2.55
2023-03-29T07:27:46.524Z,2.10
2023-03-29T07:30:19.084Z,1.48
2023-03-29T07:32:46.761Z,1.90
2023-03-29T07:35:14.958Z,1.98
2023-03-29T07:37:42.973Z,1.90
2023-03-29T07:40:16.094Z,1.83
2023-03-29T07:42:44.012Z,1.90
2023-03-29T07:45:11.477Z,1.70
2023-03-29T07:47:38.459Z,1.70
2023-03-29T07:50:07.438Z,1.92
2023-03-29T07:52:36.506Z,1.90
2023-03-29T07:55:03.056Z,1.98
2023-03-29T07:57:29.683Z,2.00
2023-03-29T07:59:56.364Z,1.33
2023-03-29T08:02:22.911Z,2.20
2023-03-29T08:04:49.885Z,1.40
2023-03-29T08:07:19.910Z,2.05
2023-03-29T08:09:46.721Z,1.98
2023-03-29T08:12:13.280Z,2.00
2023-03-29T08:14:39.885Z,1.80
2023-03-29T08:17:06.543Z,2.10
2023-03-29T08:19:33.149Z,2.25
2023-03-29T08:22:00.699Z,1.80
2023-03-29T08:24:27.334Z,1.90
2023-03-29T08:26:54.012Z,1.90
2023-03-29T08:29:20.707Z,2.58
2023-03-29T08:31:47.239Z,2.15
2023-03-29T08:34:14.290Z,2.37
2023-03-29T08:36:41.369Z,2.00
2023-03-29T08:39:08.013Z,1.80
2023-03-29T08:41:52.918Z,2.80
2023-03-29T08:44:22.511Z,2.50
2023-03-29T08:47:10.607Z,1.90
2023-03-29T08:49:39.788Z,2.45
2023-03-29T08:52:19.768Z,1.80
2023-03-29T08:54:48.737Z,2.53
2023-03-29T08:57:28.148Z,1.80
2023-03-29T08:59:57.435Z,1.85
2023-03-29T09:02:30.584Z,1.92
2023-03-29T09:05:06.044Z,1.92
2023-03-29T09:07:32.691Z,2.60
2023-03-29T09:09:59.575Z,2.72
2023-03-29T09:12:37.956Z,2.95
2023-03-29T09:15:11.686Z,4.85
2023-03-29T09:18:00.081Z,2.20
2023-03-29T09:20:55.825Z,1.95
2023-03-29T09:23:53.197Z,2.75
2023-03-29T09:26:24.138Z,1.75
2023-03-29T09:29:00.506Z,1.80
2023-03-29T09:31:35.303Z,2.60
2023-03-29T09:34:13.679Z,1.90
2023-03-29T09:36:53.372Z,1.60
2023-03-29T09:39:21.284Z,1.80
2023-03-29T09:41:53.853Z,1.77
2023-03-29T09:44:30.777Z,1.90
2023-03-29T09:47:38.151Z,2.50
2023-03-29T09:50:27.216Z,3.03
2023-03-29T09:52:57.344Z,5.40
2023-03-29T09:55:28.711Z,3.20
2023-03-29T09:58:00.696Z,1.90
2023-03-29T10:00:27.372Z,2.10
2023-03-29T10:02:57.195Z,1.70
2023-03-29T10:05:25.994Z,2.20
2023-03-29T10:07:57.693Z,1.58
2023-03-29T10:10:35.043Z,1.60
2023-03-29T10:13:06.018Z,2.53
2023-03-29T10:15:32.908Z,1.70
2023-03-29T10:18:03.396Z,1.25
2023-03-29T10:20:30.175Z,1.38
2023-03-29T10:22:59.133Z,1.17
2023-03-29T10:25:31.818Z,1.40
2023-03-29T10:28:08.408Z,1.40
2023-03-29T10:30:38.242Z,1.50
2023-03-29T10:33:07.484Z,1.02
2023-03-29T10:35:44.333Z,1.50
2023-03-29T10:38:17.464Z,1.50
2023-03-29T10:40:49.891Z,1.35
2023-03-29T10:43:29.794Z,2.28
2023-03-29T10:46:08.095Z,1.42
2023-03-29T10:48:36.134Z,1.70
2023-03-29T10:51:05.608Z,1.20
2023-03-29T10:53:34.984Z,1.70
2023-03-29T10:56:20.323Z,2.50
2023-03-29T10:59:24.419Z,2.95
2023-03-29T11:02:14.197Z,1.50
2023-03-29T11:05:00.289Z,1.50
2023-03-29T11:07:33.460Z,1.65
2023-03-29T11:10:18.217Z,1.30
2023-03-29T11:12:50.062Z,1.65
2023-03-29T11:15:38.497Z,1.30
2023-03-29T11:18:27.661Z,1.52
2023-03-29T11:21:25.142Z,1.48
2023-03-29T11:23:57.914Z,1.35
2023-03-29T11:26:36.810Z,1.35
2023-03-29T11:29:16.223Z,1.40
2023-03-29T11:32:05.486Z,1.65
2023-03-29T11:34:49.590Z,1.70
2023-03-29T11:37:28.237Z,1.30
2023-03-29T11:40:05.676Z,1.42
2023-03-29T11:42:35.999Z,1.50
2023-03-29T11:45:05.060Z,1.50
2023-03-29T11:47:41.132Z,1.55
2023-03-29T11:50:15.538Z,1.20
2023-03-29T11:53:02.070Z,1.40
2023-03-29T11:55:34.647Z,1.33
2023-03-29T11:58:12.165Z,1.45
2023-03-29T12:00:48.192Z,1.35
2023-03-29T12:03:28.478Z,1.80
2023-03-29T12:06:07.903Z,1.20
2023-03-29T12:08:48.117Z,1.33
2023-03-29T12:11:27.399Z,1.70
2023-03-29T12:13:56.387Z,1.65
2023-03-29T12:16:40.762Z,1.60
2023-03-29T12:19:30.405Z,1.45
2023-03-29T12:21:59.501Z,1.77
2023-03-29T12:24:30.701Z,1.40
2023-03-29T12:27:20.686Z,1.67
2023-03-29T12:30:12.571Z,1.50
2023-03-29T12:33:10.172Z,1.77
2023-03-29T12:35:49.748Z,1.30
2023-03-29T12:38:16.211Z,1.52
2023-03-29T12:40:46.368Z,2.15
2023-03-29T12:43:24.132Z,1.50
2023-03-29T12:45:57.189Z,1.65
2023-03-29T12:48:27.241Z,1.40
2023-03-29T12:51:01.081Z,1.40
2023-03-29T12:53:37.078Z,1.70
2023-03-29T12:56:08.172Z,1.20
2023-03-29T12:58:53.472Z,1.33
2023-03-29T13:01:27.151Z,1.70
2023-03-29T13:04:13.865Z,1.70
2023-03-29T13:06:46.681Z,1.30
2023-03-29T13:09:28.446Z,2.20
2023-03-29T13:11:58.642Z,1.83
2023-03-29T13:14:30.247Z,1.50
2023-03-29T13:17:17.728Z,1.38
2023-03-29T13:19:58.665Z,1.30
2023-03-29T13:22:37.016Z,1.42
2023-03-29T13:25:24.426Z,1.30
2023-03-29T13:28:03.355Z,1.52
2023-03-29T13:30:55.274Z,1.63
2023-03-29T13:33:21.879Z,1.10
2023-03-29T13:36:05.817Z,1.30
2023-03-29T13:38:45.524Z,1.17
2023-03-29T13:41:44.866Z,1.40
2023-03-29T13:44:23.734Z,1.88
2023-03-29T13:47:03.140Z,1.77
2023-03-29T13:49:32.651Z,1.65
2023-03-29T13:52:13.281Z,1.80
2023-03-29T13:54:48.121Z,1.75
2023-03-29T13:57:19.365Z,1.50
2023-03-29T14:00:01.355Z,1.48
2023-03-29T14:02:32.703Z,1.35
2023-03-29T14:05:02.100Z,1.70
2023-03-29T14:07:33.404Z,1.50
2023-03-29T14:10:01.298Z,2.38
2023-03-29T14:12:36.023Z,2.40
2023-03-29T14:15:06.233Z,1.30
2023-03-29T14:17:33.710Z,1.88
2023-03-29T14:22:33.837Z,2.00
2023-03-29T14:25:13.260Z,1.27
2023-03-29T14:27:41.758Z,1.55
2023-03-29T14:30:27.577Z,1.92
2023-03-29T14:32:54.721Z,1.92
2023-03-29T14:35:29.646Z,1.40
2023-03-29T14:37:56.612Z,1.20
2023-03-29T14:40:23.718Z,1.20
2023-03-29T14:42:51.290Z,1.50
2023-03-29T14:45:23.271Z,1.00
2023-03-29T14:47:50.897Z,1.88
2023-03-29T14:50:21.360Z,2.10
2023-03-29T14:52:52.291Z,1.40
2023-03-29T14:55:23.662Z,1.42
2023-03-29T14:57:53.285Z,0.95
2023-03-29T15:00:26.910Z,1.40
2023-03-29T15:02:54.894Z,2.00
2023-03-29T15:05:34.410Z,2.00
2023-03-29T15:08:02.907Z,1.10
2023-03-29T15:10:33.404Z,1.00
2023-03-29T15:13:02.680Z,1.65
2023-03-29T15:15:32.939Z,1.10
2023-03-29T15:18:00.937Z,1.38
2023-03-29T15:20:29.154Z,1.05
2023-03-29T15:23:07.706Z,1.27
2023-03-29T15:25:39.347Z,1.30
2023-03-29T15:28:06.405Z,1.05
2023-03-29T15:30:39.127Z,1.08
2023-03-29T15:33:19.370Z,1.05
2023-03-29T15:35:50.465Z,1.00
2023-03-29T15:38:17.841Z,0.95
2023-03-29T15:40:44.580Z,0.82
2023-03-29T15:43:12.000Z,0.90
2023-03-29T15:48:23.581Z,0.90
2023-03-29T15:50:50.577Z,1.02
2023-03-29T15:53:18.304Z,1.10
2023-03-29T15:55:48.036Z,1.17
2023-03-29T15:58:16.894Z,0.82
2023-03-29T16:00:48.269Z,1.02
2023-03-29T16:03:16.154Z,1.55
2023-03-29T16:05:43.993Z,1.40
2023-03-29T16:08:12.966Z,1.80
2023-03-29T16:10:41.502Z,2.40
2023-03-29T16:13:09.861Z,1.50
2023-03-29T16:15:36.877Z,1.20
2023-03-29T16:18:03.821Z,1.10
2023-03-29T16:20:30.495Z,2.20
2023-03-29T16:22:57.070Z,1.13
2023-03-29T16:25:24.279Z,1.63
2023-03-29T16:27:52.567Z,3.53
2023-03-29T16:30:19.928Z,2.13
2023-03-29T16:32:46.797Z,4.25
2023-03-29T16:35:32.144Z,5.55
2023-03-29T16:37:59.001Z,1.70
2023-03-29T16:40:26.014Z,6.38
2023-03-29T16:42:52.622Z,4.57
2023-03-29T16:45:20.304Z,2.80
2023-03-29T16:47:47.198Z,12.45
2023-03-29T16:50:16.502Z,1.60
2023-03-29T16:52:43.233Z,13.32
2023-03-29T16:55:12.360Z,18.70
2023-03-29T16:57:40.171Z,8.55
2023-03-29T17:00:15.927Z,5.13
2023-03-29T17:02:43.736Z,4.13
2023-03-29T17:05:11.944Z,40.58
2023-03-29T17:07:39.618Z,12.38
2023-03-29T17:10:08.336Z,8.02
2023-03-29T17:12:35.492Z,7.25
2023-03-29T17:15:02.718Z,6.38
2023-03-29T17:17:29.402Z,11.00
2023-03-29T17:19:56.708Z,7.85
2023-03-29T17:22:24.273Z,6.65
2023-03-29T17:24:51.297Z,8.00
2023-03-29T17:27:18.827Z,7.90
2023-03-29T17:29:45.438Z,6.72
2023-03-29T17:32:11.972Z,9.38
2023-03-29T17:34:38.953Z,10.10
2023-03-29T17:37:05.636Z,10.02
2023-03-29T17:39:33.161Z,9.00
2023-03-29T17:41:59.817Z,8.70
2023-03-29T17:44:26.992Z,8.23
2023-03-29T17:46:53.715Z,7.63
2023-03-29T17:49:20.767Z,6.78
2023-03-29T17:51:47.343Z,9.60
2023-03-29T17:54:13.933Z,8.88
2023-03-29T17:56:40.914Z,7.67
2023-03-29T17:59:07.730Z,5.30
2023-03-29T18:01:37.006Z,8.90
2023-03-29T18:04:05.232Z,14.93
2023-03-29T18:06:32.205Z,17.60
2023-03-29T18:09:01.418Z,17.73
2023-03-29T18:11:29.526Z,20.05
2023-03-29T18:13:59.904Z,6.38
2023-03-29T18:16:26.814Z,5.07
2023-03-29T18:18:53.437Z,2.80
2023-03-29T18:21:21.040Z,2.35
2023-03-29T18:23:49.356Z,2.60
2023-03-29T18:26:17.323Z,3.03
2023-03-29T18:28:48.209Z,4.20
2023-03-29T18:31:15.632Z,21.05
2023-03-29T18:33:42.714Z,12.45
2023-03-29T18:36:12.927Z,7.40
2023-03-29T18:38:43.427Z,8.38
2023-03-29T18:41:12.652Z,5.70
2023-03-29T18:43:41.210Z,7.03
2023-03-29T18:46:08.241Z,9.48
2023-03-29T18:48:41.879Z,11.40
2023-03-29T18:51:10.464Z,14.60
2023-03-29T18:53:38.776Z,14.75
2023-03-29T18:56:06.534Z,10.45
2023-03-29T18:58:33.798Z,9.38
2023-03-29T19:01:03.728Z,6.10
2023-03-29T19:03:31.782Z,2.53
2023-03-29T19:05:58.469Z,2.38
2023-03-29T19:08:26.339Z,5.13
2023-03-29T19:10:54.049Z,2.30
2023-03-29T19:13:20.583Z,2.85
2023-03-29T19:15:47.644Z,4.70
2023-03-29T19:18:14.389Z,2.20
2023-03-29T19:20:40.948Z,1.40
2023-03-29T19:23:07.535Z,2.43
2023-03-29T19:25:34.196Z,2.42
2023-03-29T19:28:03.388Z,3.72
2023-03-29T19:30:30.826Z,2.33
2023-03-29T19:35:23.966Z,4.85
2023-03-29T19:37:50.695Z,1.80
2023-03-29T19:40:17.365Z,2.47
2023-03-29T19:42:43.951Z,5.45
2023-03-29T19:45:10.859Z,1.95
2023-03-29T19:47:37.534Z,1.52
2023-03-29T19:50:05.023Z,2.53
2023-03-29T19:55:01.385Z,1.95
2023-03-29T19:57:28.358Z,1.60
2023-03-29T19:59:55.103Z,3.90
2023-03-29T20:02:21.687Z,2.45
2023-03-29T20:04:48.319Z,2.15
2023-03-29T20:07:14.917Z,2.08
2023-03-29T20:09:44.570Z,1.80
2023-03-29T20:12:11.895Z,2.25
2023-03-29T20:14:40.313Z,2.50
2023-03-29T20:17:07.410Z,2.10
2023-03-29T20:19:36.743Z,2.05
2023-03-29T20:22:04.632Z,1.98
2023-03-29T20:24:32.710Z,1.70
2023-03-29T20:26:59.464Z,1.70
2023-03-29T20:29:26.014Z,2.05
2023-03-29T20:31:52.736Z,2.13
2023-03-29T20:34:19.362Z,2.60
2023-03-29T20:36:46.813Z,1.50
2023-03-29T20:39:17.712Z,1.85
2023-03-29T20:41:47.520Z,1.70
2023-03-29T20:44:16.852Z,1.55
2023-03-29T20:46:46.523Z,1.63
2023-03-29T20:49:13.365Z,1.60
2023-03-29T20:51:42.481Z,1.20
2023-03-29T20:54:10.061Z,1.75
2023-03-29T20:56:40.078Z,1.70
2023-03-29T20:59:10.675Z,1.40
2023-03-29T21:01:40.543Z,1.50
2023-03-29T21:04:10.965Z,1.40
2023-03-29T21:06:39.603Z,1.67
2023-03-29T21:09:06.251Z,1.80
2023-03-29T21:11:33.482Z,1.70
2023-03-29T21:14:00.165Z,1.70
2023-03-29T21:16:30.053Z,1.73
2023-03-29T21:18:56.670Z,1.30
2023-03-29T21:21:23.281Z,2.03
2023-03-29T21:23:49.867Z,2.03
2023-03-29T21:26:16.530Z,1.73
2023-03-29T21:28:43.398Z,1.63
2023-03-29T21:31:10.060Z,1.75
2023-03-29T21:33:36.653Z,1.40
2023-03-29T21:36:03.370Z,1.73
2023-03-29T21:38:30.167Z,1.80
2023-03-29T21:40:58.184Z,1.65
2023-03-29T21:43:24.823Z,1.70
2023-03-29T21:45:51.539Z,1.70
2023-03-29T21:48:18.578Z,1.70
2023-03-29T21:50:50.011Z,1.58
2023-03-29T21:53:16.842Z,1.80
2023-03-29T21:55:43.468Z,1.63
2023-03-29T21:58:10.026Z,1.92
2023-03-29T22:00:36.718Z,1.73
2023-03-29T22:03:03.934Z,1.60
2023-03-29T22:05:30.581Z,2.40
2023-03-29T22:07:58.744Z,1.88
2023-03-29T22:10:25.622Z,1.90
2023-03-29T22:12:52.601Z,2.08
2023-03-29T22:15:22.484Z,1.85
2023-03-29T22:17:49.235Z,2.33
2023-03-29T22:20:18.530Z,2.75
2023-03-29T22:22:49.773Z,2.08
2023-03-29T22:25:19.781Z,2.75
2023-03-29T22:27:48.551Z,3.10
2023-03-29T22:30:17.092Z,3.05
2023-03-29T22:32:43.692Z,2.95
2023-03-29T22:35:10.778Z,3.10
2023-03-29T22:37:42.046Z,2.80
2023-03-29T22:40:10.622Z,2.63
2023-03-29T22:42:37.178Z,2.05
2023-03-29T22:45:04.750Z,2.10
2023-03-29T22:47:31.330Z,1.70
2023-03-29T22:49:57.919Z,1.45
2023-03-29T22:52:24.522Z,1.60
2023-03-29T22:54:51.227Z,1.80
2023-03-29T22:57:17.782Z,1.77
2023-03-29T22:59:44.417Z,1.63
2023-03-29T23:02:11.035Z,1.35
2023-03-29T23:04:38.793Z,1.40
2023-03-29T23:07:06.308Z,1.67
2023-03-29T23:12:01.137Z,1.73
2023-03-29T23:14:27.889Z,1.50
2023-03-29T23:16:54.461Z,1.50
2023-03-29T23:19:21.027Z,1.40
2023-03-29T23:21:47.594Z,1.53
2023-03-29T23:24:18.839Z,1.43
2023-03-29T23:26:45.785Z,1.65
2023-03-29T23:29:12.561Z,1.80
2023-03-29T23:31:39.165Z,1.73
2023-03-29T23:34:05.821Z,1.77
2023-03-29T23:36:32.396Z,1.40
2023-03-29T23:38:59.634Z,1.90
2023-03-29T23:41:28.279Z,2.00
2023-03-29T23:43:57.647Z,2.17
2023-03-29T23:46:24.698Z,2.03
2023-03-29T23:48:51.782Z,2.10
2023-03-29T23:51:22.877Z,1.90
2023-03-29T23:53:50.073Z,2.20
2023-03-29T23:56:16.884Z,1.98
2023-03-29T23:58:44.420Z,1.98
